X  Close Metar Aviation Weather Data     KCRE Grand Strand
Temperature
48°F Temperature
28°F Dewpoint
46% Humidity



Wind
8 MPH
13 KM/H
4 M/S
7 KTS



190°
South
Current Conditions

Clear Clear
Pressure 1029.42 (hPa) - 30.4 (inHg)
Visibility 10 (mile) - 16.1 (km)
Airport
Airport-code KCRE

Location: Grand Strand
Distance: 5 (mi)

Metar:
KCRE 221853Z 19007KT 10SM CLR 09/M02 A3040 RMK AO1 SLP294 T00941017

Time: 02-22-2020 1:53 pm EST